createdAt,value
2023-04-23T00:01:46.817Z,307
2023-04-23T00:04:01.919Z,310
2023-04-23T00:06:13.703Z,309
2023-04-23T00:08:24.995Z,307
2023-04-23T00:10:37.037Z,309
2023-04-23T00:12:48.998Z,306
2023-04-23T00:15:00.497Z,307
2023-04-23T00:17:14.817Z,288
2023-04-23T00:19:26.662Z,289
2023-04-23T00:21:37.683Z,301
2023-04-23T00:23:49.019Z,298
2023-04-23T00:26:00.050Z,300
2023-04-23T00:28:10.734Z,296
2023-04-23T00:30:21.017Z,294
2023-04-23T00:32:33.105Z,294
2023-04-23T00:34:45.100Z,293
2023-04-23T00:36:56.424Z,300
2023-04-23T00:39:06.857Z,294
2023-04-23T00:41:18.718Z,296
2023-04-23T00:43:30.498Z,296
2023-04-23T00:45:41.271Z,298
2023-04-23T00:47:53.561Z,300
2023-04-23T00:50:04.354Z,298
2023-04-23T00:52:15.935Z,300
2023-04-23T00:54:27.358Z,301
2023-04-23T00:56:39.675Z,303
2023-04-23T00:58:51.675Z,290
2023-04-23T01:01:03.056Z,286
2023-04-23T01:03:14.610Z,297
2023-04-23T01:05:25.259Z,293
2023-04-23T01:07:36.307Z,292
2023-04-23T01:09:46.820Z,296
2023-04-23T01:11:58.344Z,279
2023-04-23T01:14:09.459Z,298
2023-04-23T01:16:20.856Z,297
2023-04-23T01:18:31.801Z,302
2023-04-23T01:20:42.338Z,301
2023-04-23T01:22:53.317Z,307
2023-04-23T01:25:03.540Z,307
2023-04-23T01:27:15.218Z,310
2023-04-23T01:29:25.643Z,309
2023-04-23T01:31:36.720Z,309
2023-04-23T01:33:51.389Z,310
2023-04-23T01:36:03.778Z,310
2023-04-23T01:38:15.059Z,315
2023-04-23T01:40:26.102Z,313
2023-04-23T01:42:38.796Z,312
2023-04-23T01:44:49.319Z,310
2023-04-23T01:47:02.315Z,312
2023-04-23T01:49:16.114Z,313
2023-04-23T01:51:27.296Z,313
2023-04-23T01:53:38.960Z,313
2023-04-23T01:55:50.536Z,314
2023-04-23T01:58:01.515Z,313
2023-04-23T02:00:13.386Z,313
2023-04-23T02:02:26.599Z,313
2023-04-23T02:04:38.852Z,313
2023-04-23T02:06:50.141Z,313
2023-04-23T02:09:03.078Z,313
2023-04-23T02:11:14.983Z,313
2023-04-23T02:13:25.699Z,313
2023-04-23T02:15:37.439Z,313
2023-04-23T02:17:48.018Z,310
2023-04-23T02:19:59.782Z,310
2023-04-23T02:22:10.940Z,310
2023-04-23T02:24:23.240Z,313
2023-04-23T02:26:36.818Z,310
2023-04-23T02:28:47.778Z,310
2023-04-23T02:30:58.840Z,312
2023-04-23T02:33:09.600Z,310
2023-04-23T02:35:21.430Z,313
2023-04-23T02:37:32.920Z,313
2023-04-23T02:39:44.440Z,315
2023-04-23T02:41:54.998Z,313
2023-04-23T02:44:06.061Z,315
2023-04-23T02:46:16.660Z,312
2023-04-23T02:48:27.563Z,310
2023-04-23T02:50:37.716Z,313
2023-04-23T02:52:50.218Z,313
2023-04-23T02:55:00.758Z,316
2023-04-23T02:57:12.995Z,317
2023-04-23T02:59:24.335Z,313
2023-04-23T03:01:35.818Z,313
2023-04-23T03:03:48.032Z,314
2023-04-23T03:05:58.893Z,315
2023-04-23T03:08:11.734Z,313
2023-04-23T03:10:22.858Z,313
2023-04-23T03:12:36.994Z,315
2023-04-23T03:14:48.863Z,316
2023-04-23T03:17:01.988Z,315
2023-04-23T03:19:13.415Z,312
2023-04-23T03:21:25.561Z,312
2023-04-23T03:23:37.271Z,312
2023-04-23T03:25:49.441Z,313
2023-04-23T03:28:00.466Z,313
2023-04-23T03:30:11.517Z,313
2023-04-23T03:32:22.559Z,313
2023-04-23T03:34:33.454Z,313
2023-04-23T03:36:45.253Z,313
2023-04-23T03:38:56.794Z,313
2023-04-23T03:41:10.199Z,313
2023-04-23T03:43:23.878Z,313
2023-04-23T03:45:36.255Z,313
2023-04-23T03:47:51.909Z,313
2023-04-23T03:50:03.676Z,313
2023-04-23T03:52:15.306Z,313
2023-04-23T03:54:26.507Z,312
2023-04-23T03:56:37.421Z,313
2023-04-23T03:58:51.340Z,310
2023-04-23T04:01:02.761Z,316
2023-04-23T04:03:14.886Z,312
2023-04-23T04:05:28.081Z,316
2023-04-23T04:07:38.955Z,315
2023-04-23T04:09:49.777Z,314
2023-04-23T04:12:05.284Z,313
2023-04-23T04:14:17.188Z,310
2023-04-23T04:16:29.445Z,316
2023-04-23T04:18:40.984Z,316
2023-04-23T04:20:51.762Z,312
2023-04-23T04:23:02.540Z,309
2023-04-23T04:25:14.260Z,309
2023-04-23T05:05:27.550Z,314
2023-04-23T05:50:16.326Z,310
2023-04-23T05:52:27.298Z,310
2023-04-23T05:54:39.862Z,310
2023-04-23T05:57:07.573Z,310
2023-04-23T05:59:25.890Z,310
2023-04-23T06:01:43.977Z,312
2023-04-23T06:03:58.928Z,308
2023-04-23T06:06:21.793Z,309
2023-04-23T06:08:45.774Z,308
2023-04-23T06:10:58.542Z,309
2023-04-23T06:13:15.543Z,309
2023-04-23T06:15:36.582Z,310
2023-04-23T06:17:49.571Z,312
2023-04-23T06:20:08.950Z,312
2023-04-23T06:22:24.862Z,312
2023-04-23T06:24:36.927Z,312
2023-04-23T06:26:47.867Z,313
2023-04-23T06:29:00.790Z,313
2023-04-23T06:31:17.665Z,312
2023-04-23T06:33:30.710Z,312
2023-04-23T06:35:41.878Z,312
2023-04-23T06:37:55.296Z,310
2023-04-23T06:40:11.519Z,314
2023-04-23T06:42:28.120Z,313
2023-04-23T06:44:53.099Z,312
2023-04-23T06:47:08.305Z,313
2023-04-23T06:49:19.199Z,313
2023-04-23T06:51:30.732Z,313
2023-04-23T06:53:46.753Z,313
2023-04-23T06:55:58.502Z,313
2023-04-23T06:58:16.975Z,313
2023-04-23T07:00:33.416Z,313
2023-04-23T07:02:48.919Z,310
2023-04-23T07:05:02.698Z,312
2023-04-23T07:07:17.990Z,312
2023-04-23T07:09:36.690Z,312
2023-04-23T07:11:51.289Z,312
2023-04-23T07:14:10.263Z,312
2023-04-23T07:16:34.101Z,312
2023-04-23T07:19:01.577Z,310
2023-04-23T07:21:21.137Z,312
2023-04-23T07:23:32.928Z,312
2023-04-23T07:25:44.375Z,313
2023-04-23T07:28:07.999Z,310
2023-04-23T07:30:24.915Z,312
2023-04-23T07:32:37.034Z,312
2023-04-23T07:34:56.517Z,310
2023-04-23T07:37:10.121Z,308
2023-04-23T07:39:21.616Z,312
2023-04-23T07:41:36.176Z,312
2023-04-23T07:43:48.864Z,312
2023-04-23T07:46:03.102Z,312
2023-04-23T07:48:14.780Z,312
2023-04-23T07:50:26.652Z,312
2023-04-23T07:52:38.496Z,312
2023-04-23T07:54:51.196Z,312
2023-04-23T07:57:02.138Z,312
2023-04-23T07:59:16.655Z,312
2023-04-23T08:01:29.158Z,312
2023-04-23T08:03:43.630Z,313
2023-04-23T08:05:56.436Z,313
2023-04-23T08:08:14.721Z,313
2023-04-23T08:10:30.256Z,313
2023-04-23T08:12:43.546Z,313
2023-04-23T08:14:55.775Z,313
2023-04-23T08:17:07.634Z,293
2023-04-23T08:19:19.038Z,320
2023-04-23T08:21:32.905Z,320
2023-04-23T08:23:43.019Z,320
2023-04-23T08:25:53.300Z,320
2023-04-23T08:28:05.595Z,320
2023-04-23T08:30:20.085Z,320
2023-04-23T08:32:31.420Z,320
2023-04-23T08:34:43.734Z,320
2023-04-23T08:36:56.132Z,320
2023-04-23T08:39:07.071Z,320
2023-04-23T08:41:22.453Z,320
2023-04-23T08:43:33.073Z,320
2023-04-23T08:45:49.776Z,320
2023-04-23T08:48:05.173Z,320
2023-04-23T08:50:31.011Z,320
2023-04-23T08:52:43.637Z,320
2023-04-23T08:55:02.149Z,320
2023-04-23T08:57:13.834Z,320
2023-04-23T08:59:27.914Z,320
2023-04-23T09:01:39.783Z,320
2023-04-23T09:03:51.360Z,320
2023-04-23T09:06:03.153Z,320
2023-04-23T09:08:15.394Z,320
2023-04-23T09:10:26.675Z,320
2023-04-23T09:12:38.723Z,320
2023-04-23T09:14:50.674Z,320
2023-04-23T09:17:02.173Z,320
2023-04-23T09:19:12.615Z,320
2023-04-23T09:21:27.928Z,320
2023-04-23T09:23:39.172Z,320
2023-04-23T09:25:50.853Z,315
2023-04-23T09:28:02.833Z,312
2023-04-23T09:30:18.072Z,313
2023-04-23T09:32:36.163Z,310
2023-04-23T09:34:48.493Z,305
2023-04-23T09:37:01.217Z,284
2023-04-23T09:39:12.095Z,288
2023-04-23T09:41:27.710Z,266
2023-04-23T09:43:41.110Z,281
2023-04-23T09:45:53.750Z,277
2023-04-23T09:48:07.466Z,277
2023-04-23T09:50:21.379Z,285
2023-04-23T09:52:35.597Z,282
2023-04-23T09:54:56.032Z,288
2023-04-23T09:57:14.385Z,284
2023-04-23T09:59:57.341Z,314
2023-04-23T10:02:26.838Z,316
2023-04-23T10:04:44.362Z,316
2023-04-23T10:07:22.638Z,317
2023-04-23T10:09:37.814Z,317
2023-04-23T10:11:55.110Z,317
2023-04-23T10:14:06.956Z,318
2023-04-23T10:16:48.548Z,319
2023-04-23T10:19:05.209Z,317
2023-04-23T10:21:20.621Z,317
2023-04-23T10:23:35.291Z,317
2023-04-23T10:25:46.289Z,319
2023-04-23T10:27:59.647Z,317
2023-04-23T10:30:11.713Z,317
2023-04-23T10:32:22.268Z,312
2023-04-23T10:34:33.750Z,317
2023-04-23T10:36:47.458Z,310
2023-04-23T10:39:05.611Z,330
2023-04-23T10:41:20.620Z,331
2023-04-23T10:43:36.696Z,329
2023-04-23T10:45:48.710Z,334
2023-04-23T10:48:00.161Z,336
2023-04-23T10:50:11.583Z,336
2023-04-23T10:52:29.291Z,336
2023-04-23T10:54:42.448Z,334
2023-04-23T10:57:03.556Z,336
2023-04-23T10:59:16.911Z,336
2023-04-23T11:01:30.914Z,336
2023-04-23T11:03:49.052Z,336
2023-04-23T11:06:01.803Z,334
2023-04-23T11:08:27.530Z,334
2023-04-23T11:10:42.916Z,334
2023-04-23T11:12:56.681Z,331
2023-04-23T11:15:08.616Z,329
2023-04-23T11:17:36.786Z,328
2023-04-23T11:19:53.792Z,328
2023-04-23T11:22:10.881Z,330
2023-04-23T11:24:23.896Z,330
2023-04-23T11:26:50.775Z,330
2023-04-23T11:29:01.370Z,330
2023-04-23T11:31:15.852Z,297
2023-04-23T11:33:35.159Z,297
2023-04-23T11:35:51.572Z,274
2023-04-23T11:38:10.022Z,309
2023-04-23T11:40:26.523Z,298
2023-04-23T11:42:40.700Z,308
2023-04-23T11:44:51.841Z,306
2023-04-23T11:47:03.857Z,303
2023-04-23T11:49:19.099Z,306
2023-04-23T11:51:33.214Z,316
2023-04-23T11:53:46.221Z,316
2023-04-23T11:55:58.097Z,317
2023-04-23T11:58:09.645Z,316
2023-04-23T12:00:21.380Z,317
2023-04-23T12:02:32.458Z,316
2023-04-23T12:05:06.198Z,317
2023-04-23T12:07:33.116Z,298
2023-04-23T12:09:49.033Z,300
2023-04-23T12:11:59.806Z,320
2023-04-23T12:14:18.580Z,318
2023-04-23T12:16:35.031Z,320
2023-04-23T12:18:45.193Z,320
2023-04-23T12:20:58.452Z,317
2023-04-23T12:23:12.829Z,321
2023-04-23T12:25:27.494Z,317
2023-04-23T12:27:51.032Z,313
2023-04-23T12:30:03.413Z,313
2023-04-23T12:32:16.604Z,300
2023-04-23T12:34:29.155Z,313
2023-04-23T12:36:46.572Z,312
2023-04-23T12:38:59.804Z,303
2023-04-23T12:41:11.455Z,307
2023-04-23T12:43:25.071Z,286
2023-04-23T12:45:37.517Z,307
2023-04-23T12:47:50.206Z,313
2023-04-23T12:50:06.755Z,306
2023-04-23T12:52:29.556Z,312
2023-04-23T12:54:43.078Z,310
2023-04-23T12:56:56.438Z,313
2023-04-23T12:59:09.857Z,312
2023-04-23T13:01:19.880Z,307
2023-04-23T13:03:35.258Z,313
2023-04-23T13:06:03.017Z,308
2023-04-23T13:08:15.032Z,314
2023-04-23T13:10:27.215Z,313
2023-04-23T13:12:43.678Z,316
2023-04-23T13:15:00.844Z,315
2023-04-23T13:17:15.014Z,315
2023-04-23T13:19:29.580Z,315
2023-04-23T13:21:42.013Z,312
2023-04-23T13:23:54.996Z,303
2023-04-23T13:26:09.314Z,313
2023-04-23T13:28:21.949Z,315
2023-04-23T13:30:35.477Z,315
2023-04-23T13:32:48.792Z,313
2023-04-23T13:35:06.436Z,308
2023-04-23T13:37:22.789Z,303
2023-04-23T13:39:34.935Z,288
2023-04-23T13:42:11.811Z,288
2023-04-23T13:44:33.031Z,286
2023-04-23T13:46:51.144Z,290
2023-04-23T13:49:03.713Z,289
2023-04-23T13:51:39.406Z,286
2023-04-23T13:53:52.192Z,285
2023-04-23T13:56:04.133Z,288
2023-04-23T13:58:17.691Z,278
2023-04-23T14:00:32.854Z,267
2023-04-23T14:02:46.069Z,278
2023-04-23T14:04:58.470Z,279
2023-04-23T14:07:12.358Z,277
2023-04-23T14:09:26.697Z,265
2023-04-23T14:11:37.955Z,271
2023-04-23T14:13:48.273Z,271
2023-04-23T14:16:02.949Z,270
2023-04-23T14:18:21.879Z,279
2023-04-23T14:20:35.237Z,280
2023-04-23T14:22:52.334Z,273
2023-04-23T14:25:06.335Z,279
2023-04-23T14:27:17.678Z,279
2023-04-23T14:29:32.272Z,286
2023-04-23T14:31:45.851Z,273
2023-04-23T14:34:00.431Z,270
2023-04-23T14:36:11.511Z,274
2023-04-23T14:38:24.890Z,274
2023-04-23T14:40:38.873Z,274
2023-04-23T14:43:20.226Z,301
2023-04-23T14:45:34.938Z,301
2023-04-23T14:47:49.812Z,301
2023-04-23T14:50:02.545Z,320
2023-04-23T14:52:14.529Z,319
2023-04-23T14:54:27.985Z,319
2023-04-23T14:56:42.430Z,325
2023-04-23T14:58:55.991Z,321
2023-04-23T15:01:10.551Z,313
2023-04-23T15:03:24.361Z,319
2023-04-23T15:05:38.340Z,321
2023-04-23T15:07:52.374Z,320
2023-04-23T15:10:07.516Z,320
2023-04-23T15:12:25.997Z,320
2023-04-23T15:14:39.606Z,319
2023-04-23T15:16:57.837Z,320
2023-04-23T15:19:09.871Z,320
2023-04-23T15:21:21.552Z,318
2023-04-23T15:23:35.167Z,321
2023-04-23T15:25:52.874Z,320
2023-04-23T15:28:06.649Z,321
2023-04-23T15:30:27.499Z,318
2023-04-23T15:32:42.371Z,317
2023-04-23T15:34:54.179Z,308
2023-04-23T15:37:05.248Z,308
2023-04-23T15:39:19.841Z,330
2023-04-23T15:41:39.738Z,322
2023-04-23T15:43:55.923Z,319
2023-04-23T15:46:15.781Z,315
2023-04-23T15:48:28.620Z,310
2023-04-23T15:50:44.277Z,313
2023-04-23T15:53:02.906Z,313
2023-04-23T15:55:23.339Z,316
2023-04-23T15:57:39.858Z,313
2023-04-23T15:59:53.379Z,312
2023-04-23T16:02:11.373Z,313
2023-04-23T16:04:41.957Z,316
2023-04-23T16:07:02.972Z,315
2023-04-23T16:09:18.100Z,284
2023-04-23T16:11:34.053Z,308
2023-04-23T16:13:47.293Z,308
2023-04-23T16:16:00.841Z,290
2023-04-23T16:18:16.763Z,313
2023-04-23T16:20:31.514Z,310
2023-04-23T16:22:44.593Z,309
2023-04-23T16:25:01.021Z,310
2023-04-23T16:27:18.993Z,310
2023-04-23T16:29:31.521Z,310
2023-04-23T16:31:56.277Z,300
2023-04-23T16:34:14.752Z,301
2023-04-23T16:36:28.474Z,301
2023-04-23T16:38:40.382Z,307
2023-04-23T16:40:55.322Z,303
2023-04-23T16:43:09.794Z,302
2023-04-23T16:45:28.573Z,306
2023-04-23T16:47:45.062Z,306
2023-04-23T16:50:10.883Z,301
2023-04-23T16:52:26.193Z,301
2023-04-23T16:54:38.600Z,301
2023-04-23T16:56:53.944Z,297
2023-04-23T16:59:07.538Z,301
2023-04-23T17:01:24.348Z,291
2023-04-23T17:03:37.714Z,301
2023-04-23T17:05:52.834Z,303
2023-04-23T17:08:09.620Z,301
2023-04-23T17:10:26.474Z,301
2023-04-23T17:12:41.157Z,290
2023-04-23T17:14:57.017Z,291
2023-04-23T17:17:10.460Z,290
2023-04-23T17:19:30.613Z,290
2023-04-23T17:21:43.755Z,298
2023-04-23T17:23:58.715Z,297
2023-04-23T17:26:12.975Z,295
2023-04-23T17:28:29.363Z,296
2023-04-23T17:30:43.976Z,292
2023-04-23T17:33:02.101Z,282
2023-04-23T17:35:16.636Z,277
2023-04-23T17:37:38.217Z,306
2023-04-23T17:39:54.222Z,308
2023-04-23T17:42:11.359Z,289
2023-04-23T17:44:25.697Z,291
2023-04-23T17:46:41.136Z,300
2023-04-23T17:49:00.555Z,309
2023-04-23T17:51:15.899Z,310
2023-04-23T17:53:34.201Z,309
2023-04-23T17:55:47.580Z,310
2023-04-23T17:57:59.955Z,312
2023-04-23T18:00:30.033Z,313
2023-04-23T18:02:46.583Z,309
2023-04-23T18:05:06.312Z,312
2023-04-23T18:07:19.916Z,312
2023-04-23T18:09:34.713Z,306
2023-04-23T18:11:48.855Z,313
2023-04-23T18:14:06.672Z,309
2023-04-23T18:16:19.618Z,313
2023-04-23T18:18:44.607Z,313
2023-04-23T18:20:58.289Z,307
2023-04-23T18:23:12.677Z,307
2023-04-23T18:25:28.053Z,308
2023-04-23T18:27:44.414Z,293
2023-04-23T18:30:01.455Z,303
2023-04-23T18:32:36.999Z,294
2023-04-23T18:34:54.496Z,301
2023-04-23T18:37:09.314Z,298
2023-04-23T18:39:24.634Z,302
2023-04-23T18:41:42.104Z,288
2023-04-23T18:43:58.297Z,297
2023-04-23T18:46:11.795Z,296
2023-04-23T18:48:29.481Z,308
2023-04-23T18:50:44.460Z,310
2023-04-23T18:52:56.355Z,309
2023-04-23T18:55:10.859Z,296
2023-04-23T18:57:24.451Z,298
2023-04-23T18:59:42.296Z,309
2023-04-23T19:02:02.982Z,303
2023-04-23T19:04:19.473Z,302
2023-04-23T19:06:33.857Z,308
2023-04-23T19:08:47.295Z,308
2023-04-23T19:10:59.916Z,309
2023-04-23T19:13:13.654Z,306
2023-04-23T19:15:31.772Z,308
2023-04-23T19:17:45.195Z,308
2023-04-23T19:19:58.712Z,308
2023-04-23T19:22:12.573Z,308
2023-04-23T19:24:29.094Z,308
2023-04-23T19:26:43.776Z,306
2023-04-23T19:28:57.177Z,306
2023-04-23T19:31:20.254Z,306
2023-04-23T19:33:44.237Z,307
2023-04-23T19:35:58.019Z,300
2023-04-23T19:38:12.099Z,297
2023-04-23T19:40:30.617Z,296
2023-04-23T19:42:45.114Z,291
2023-04-23T19:45:01.152Z,298
2023-04-23T19:47:14.612Z,300
2023-04-23T19:49:28.154Z,300
2023-04-23T19:51:42.376Z,301
2023-04-23T19:53:57.518Z,301
2023-04-23T19:56:11.055Z,300
2023-04-23T19:58:24.296Z,300
2023-04-23T20:00:44.811Z,301
2023-04-23T20:03:00.772Z,300
2023-04-23T20:05:20.689Z,298
2023-04-23T20:07:37.834Z,300
2023-04-23T20:09:54.714Z,298
2023-04-23T20:12:06.753Z,301
2023-04-23T20:14:20.032Z,298
2023-04-23T20:16:33.859Z,301
2023-04-23T20:18:45.683Z,300
2023-04-23T20:20:59.057Z,301
2023-04-23T20:23:12.120Z,301
2023-04-23T20:25:32.732Z,307
2023-04-23T20:27:46.334Z,302
2023-04-23T20:29:59.115Z,313
2023-04-23T20:32:11.913Z,310
2023-04-23T20:34:25.675Z,309
2023-04-23T20:36:43.140Z,296
2023-04-23T20:38:56.518Z,284
2023-04-23T20:41:12.635Z,288
2023-04-23T20:43:25.392Z,319
2023-04-23T20:45:38.672Z,317
2023-04-23T20:47:53.315Z,313
2023-04-23T20:50:04.715Z,321
2023-04-23T20:52:17.375Z,321
2023-04-23T20:54:27.900Z,321
2023-04-23T20:56:45.196Z,321
2023-04-23T20:58:57.520Z,322
2023-04-23T21:01:11.382Z,322
2023-04-23T21:03:28.312Z,321
2023-04-23T21:05:41.400Z,322
2023-04-23T21:07:56.616Z,321
2023-04-23T21:10:09.198Z,322
2023-04-23T21:12:21.496Z,322
2023-04-23T21:14:34.213Z,321
2023-04-23T21:16:47.363Z,322
2023-04-23T21:19:02.525Z,322
2023-04-23T21:21:15.194Z,326
2023-04-23T21:23:27.095Z,326
2023-04-23T21:25:42.676Z,328
2023-04-23T21:27:57.212Z,328
2023-04-23T21:30:09.918Z,328
2023-04-23T21:32:24.168Z,328
2023-04-23T21:34:50.812Z,329
2023-04-23T21:37:06.153Z,329
2023-04-23T21:39:19.182Z,329
2023-04-23T21:41:31.679Z,317
2023-04-23T21:43:44.157Z,326
2023-04-23T21:45:54.814Z,326
2023-04-23T21:48:06.285Z,327
2023-04-23T21:50:18.452Z,327
2023-04-23T21:52:30.616Z,326
2023-04-23T21:54:41.416Z,327
2023-04-23T21:56:51.796Z,329
2023-04-23T21:59:02.914Z,329
2023-04-23T22:01:13.772Z,329
2023-04-23T22:03:45.435Z,328
2023-04-23T22:06:00.391Z,328
2023-04-23T22:08:12.537Z,325
2023-04-23T22:10:25.555Z,328
2023-04-23T22:12:43.937Z,328
2023-04-23T22:14:55.526Z,327
2023-04-23T22:17:07.314Z,327
2023-04-23T22:19:19.533Z,327
2023-04-23T22:21:31.713Z,329
2023-04-23T22:23:43.436Z,329
2023-04-23T22:25:57.493Z,326
2023-04-23T22:28:08.474Z,319
2023-04-23T22:30:20.639Z,319
2023-04-23T22:32:33.206Z,320
2023-04-23T22:34:46.352Z,308
2023-04-23T22:36:58.531Z,309
2023-04-23T22:39:10.755Z,309
2023-04-23T22:41:21.328Z,309
2023-04-23T22:43:36.207Z,309
2023-04-23T22:46:02.786Z,310
2023-04-23T22:48:17.575Z,316
2023-04-23T22:50:30.455Z,313
2023-04-23T22:52:43.135Z,313
2023-04-23T22:54:58.581Z,319
2023-04-23T22:57:09.096Z,310
2023-04-23T22:59:21.150Z,315
2023-04-23T23:01:34.445Z,316
2023-04-23T23:03:46.478Z,316
2023-04-23T23:06:02.413Z,318
2023-04-23T23:08:14.672Z,317
2023-04-23T23:10:27.270Z,309
2023-04-23T23:12:38.634Z,315
2023-04-23T23:14:53.833Z,313
2023-04-23T23:17:06.731Z,317
2023-04-23T23:19:22.010Z,319
2023-04-23T23:21:31.727Z,320
2023-04-23T23:23:42.589Z,321
2023-04-23T23:25:53.433Z,322
2023-04-23T23:28:05.293Z,322
2023-04-23T23:30:17.135Z,317
2023-04-23T23:32:32.788Z,321
2023-04-23T23:34:45.171Z,317
2023-04-23T23:36:57.810Z,316
2023-04-23T23:39:10.492Z,316
2023-04-23T23:41:21.965Z,318
2023-04-23T23:43:32.837Z,318
2023-04-23T23:45:42.531Z,316
2023-04-23T23:47:56.416Z,316
2023-04-23T23:50:10.059Z,316
2023-04-23T23:52:22.739Z,316
2023-04-23T23:54:33.215Z,312
2023-04-23T23:56:45.935Z,316
2023-04-23T23:58:57.955Z,314
